Time;durP1;ratioP1;P1;durP2;ratioP2;P2;SDS_P1;SDS_P2;PMS_P1;PMS_P2;Temp;Humidity;BMP_temperature;BMP_pressure;BME280_temperature;BME280_humidity;BME280_pressure;Samples;Min_cycle;Max_cycle;Signal;HPM_P1;HPM_P2
2023/10/16 20:18:16;;;;;;;;;2.75;2.75;;;;;;;;5104097;27;13401;-75
2023/10/16 20:20:47;;;;;;;;;1.50;1.50;;;;;;;;5105866;28;11861;-76
2023/10/16 20:23:13;;;;;;;;;1.50;1.00;;;;;;;;5107492;28;10978;-71
2023/10/16 20:25:48;;;;;;;;;5.00;3.25;;;;;;;;5107490;28;10825;-74
2023/10/16 20:28:14;;;;;;;;;2.75;2.00;;;;;;;;5107546;28;10805;-75
2023/10/16 20:30:41;;;;;;;;;2.75;2.00;;;;;;;;5106116;28;10783;-72
2023/10/16 20:33:06;;;;;;;;;1.00;1.00;;;;;;;;5105998;28;10774;-71
2023/10/16 20:35:33;;;;;;;;;2.00;1.00;;;;;;;;5107466;28;11542;-71
2023/10/16 20:37:59;;;;;;;;;4.25;2.00;;;;;;;;5107157;28;8846;-72
2023/10/16 20:40:24;;;;;;;;;1.00;1.00;;;;;;;;5105879;28;10627;-72
2023/10/16 20:42:51;;;;;;;;;1.00;1.00;;;;;;;;5107435;28;8812;-72
2023/10/16 20:45:18;;;;;;;;;3.50;1.00;;;;;;;;5106516;28;8812;-72
2023/10/16 20:47:45;;;;;;;;;2.50;1.00;;;;;;;;5103555;28;10593;-72
2023/10/16 20:50:11;;;;;;;;;1.00;1.00;;;;;;;;5077689;28;10561;-71
2023/10/16 20:52:36;;;;;;;;;3.00;2.00;;;;;;;;5066308;28;10549;-71
2023/10/16 20:55:02;;;;;;;;;2.25;1.00;;;;;;;;5066383;28;8840;-72
2023/10/16 20:57:27;;;;;;;;;2.00;1.00;;;;;;;;5066427;28;8918;-72
2023/10/16 20:59:52;;;;;;;;;1.00;1.00;;;;;;;;5066503;28;9732;-73
2023/10/16 21:02:17;;;;;;;;;2.00;1.00;;;;;;;;5065666;28;8809;-73
2023/10/16 21:04:43;;;;;;;;;1.00;1.00;;;;;;;;5066824;28;8805;-71
2023/10/16 21:07:10;;;;;;;;;1.00;1.00;;;;;;;;5066494;28;8817;-72
2023/10/16 21:09:35;;;;;;;;;2.75;1.50;;;;;;;;5066871;28;8805;-70
2023/10/16 21:12:00;;;;;;;;;2.00;1.25;;;;;;;;5066770;28;10543;-71
2023/10/16 21:14:25;;;;;;;;;2.00;2.00;;;;;;;;5066377;28;8789;-72
2023/10/16 21:16:51;;;;;;;;;1.50;1.00;;;;;;;;5066299;28;8821;-73
2023/10/16 21:19:16;;;;;;;;;2.00;2.00;;;;;;;;5066478;28;8898;-73
2023/10/16 21:21:42;;;;;;;;;2.00;2.00;;;;;;;;5066440;28;8918;-73
2023/10/16 21:24:08;;;;;;;;;2.00;2.00;;;;;;;;5066615;28;8805;-73
2023/10/16 21:26:33;;;;;;;;;2.00;2.00;;;;;;;;5066471;28;10364;-72
2023/10/16 21:28:59;;;;;;;;;5.00;2.50;;;;;;;;5056744;28;8793;-72
2023/10/16 21:31:25;;;;;;;;;1.75;1.75;;;;;;;;5053136;28;9559;-71
2023/10/16 21:33:50;;;;;;;;;2.00;2.00;;;;;;;;5052400;28;10469;-72
2023/10/16 21:36:16;;;;;;;;;2.00;1.50;;;;;;;;5052353;28;10713;-70
2023/10/16 21:38:41;;;;;;;;;1.75;1.75;;;;;;;;5052376;28;8844;-70
2023/10/16 21:41:07;;;;;;;;;3.25;2.00;;;;;;;;5053189;28;8797;-71
2023/10/16 21:43:32;;;;;;;;;1.00;1.00;;;;;;;;5053056;28;8793;-71
2023/10/16 21:46:00;;;;;;;;;1.00;1.00;;;;;;;;5053027;28;8863;-70
2023/10/16 21:48:25;;;;;;;;;0.00;0.00;;;;;;;;5052956;28;8801;-70
2023/10/16 21:50:51;;;;;;;;;1.00;1.00;;;;;;;;5052478;28;10473;-71
2023/10/16 21:53:16;;;;;;;;;0.75;0.75;;;;;;;;5052952;28;8891;-71
2023/10/16 21:55:42;;;;;;;;;0.00;0.00;;;;;;;;5052969;28;8919;-71
2023/10/16 21:58:07;;;;;;;;;0.00;0.00;;;;;;;;5052899;28;8841;-71
